Terminal Aerodrome Forecast
Issued by NWS

Home | Current Version | Previous Version | Text Only | Print | Product List | Glossary Off
Versions: 1 2 3 4 5 6 7 8 9 10 11 12 13 14 15

085
FTUS43 KICT 111131
TAFCNU
TAF
KCNU 111131Z 1112/1212 03013KT P6SM SKC
     FM111500 03010KT P6SM SCT015
     FM111900 05007KT P6SM SCT250
     FM120000 VRB03KT P6SM SCT200=

USA.gov is the U.S. government's official web portal to all federal, state and local government web resources and services.